createdAt,value
2022-09-25T00:01:31.013Z,13.40
2022-09-25T00:03:59.253Z,13.40
2022-09-25T00:06:29.088Z,13.40
2022-09-25T00:08:58.799Z,13.40
2022-09-25T00:11:30.152Z,13.40
2022-09-25T00:13:59.402Z,13.40
2022-09-25T00:16:30.569Z,13.30
2022-09-25T00:19:17.130Z,13.40
2022-09-25T00:21:46.015Z,13.30
2022-09-25T00:24:15.236Z,13.30
2022-09-25T00:26:45.101Z,13.30
2022-09-25T00:29:18.660Z,13.30
2022-09-25T00:31:47.210Z,13.40
2022-09-25T00:34:18.460Z,13.30
2022-09-25T00:36:46.656Z,13.40
2022-09-25T00:39:15.356Z,13.40
2022-09-25T00:41:45.353Z,13.40
2022-09-25T00:44:48.358Z,13.40
2022-09-25T00:47:21.616Z,13.40
2022-09-25T00:49:50.657Z,13.40
2022-09-25T00:52:19.272Z,13.40
2022-09-25T00:54:52.417Z,13.40
2022-09-25T00:57:26.972Z,13.40
2022-09-25T00:59:58.864Z,13.40
2022-09-25T01:02:30.385Z,13.40
2022-09-25T01:05:01.585Z,13.40
2022-09-25T01:07:30.352Z,13.30
2022-09-25T01:10:02.427Z,13.30
2022-09-25T01:12:32.297Z,13.30
2022-09-25T01:15:00.578Z,13.30
2022-09-25T01:17:34.665Z,13.30
2022-09-25T01:20:15.888Z,13.20
2022-09-25T01:22:57.197Z,13.20
2022-09-25T01:25:35.543Z,13.10
2022-09-25T01:28:25.517Z,13.10
2022-09-25T01:31:00.459Z,13.10
2022-09-25T01:33:34.546Z,13.00
2022-09-25T01:36:12.542Z,13.00
2022-09-25T01:38:46.670Z,13.00
2022-09-25T01:41:21.786Z,13.00
2022-09-25T01:43:54.739Z,13.00
2022-09-25T01:46:29.244Z,13.00
2022-09-25T01:49:01.426Z,13.00
2022-09-25T01:51:33.294Z,13.00
2022-09-25T01:54:06.831Z,13.00
2022-09-25T01:56:40.984Z,13.00
2022-09-25T01:59:17.435Z,13.10
2022-09-25T02:01:48.716Z,13.10
2022-09-25T02:04:21.943Z,13.10
2022-09-25T02:06:52.437Z,13.10
2022-09-25T02:09:30.849Z,13.00
2022-09-25T02:12:02.927Z,13.00
2022-09-25T02:14:36.549Z,13.10
2022-09-25T02:17:10.958Z,13.00
2022-09-25T02:19:56.546Z,13.00
2022-09-25T02:22:32.356Z,13.00
2022-09-25T02:25:06.689Z,13.00
2022-09-25T02:27:35.212Z,13.00
2022-09-25T02:30:03.392Z,13.10
2022-09-25T02:32:34.101Z,13.00
2022-09-25T02:35:02.690Z,12.90
2022-09-25T02:37:31.186Z,13.00
2022-09-25T02:40:02.705Z,13.00
2022-09-25T02:42:39.391Z,13.00
2022-09-25T02:45:17.327Z,13.00
2022-09-25T02:47:58.405Z,13.00
2022-09-25T02:50:31.245Z,13.00
2022-09-25T02:53:07.230Z,13.00
2022-09-25T02:55:41.401Z,13.00
2022-09-25T02:58:16.462Z,13.10
2022-09-25T03:00:48.834Z,13.00
2022-09-25T03:03:20.404Z,13.00
2022-09-25T03:05:50.206Z,13.10
2022-09-25T03:08:36.326Z,13.00
2022-09-25T03:11:06.451Z,13.00
2022-09-25T03:13:35.170Z,13.00
2022-09-25T03:16:09.285Z,13.00
2022-09-25T03:18:39.289Z,12.90
2022-09-25T03:21:07.742Z,12.80
2022-09-25T03:23:35.939Z,12.80
2022-09-25T03:26:04.630Z,12.80
2022-09-25T03:28:33.444Z,12.80
2022-09-25T03:31:03.501Z,12.80
2022-09-25T03:33:35.679Z,12.80
2022-09-25T03:36:08.273Z,12.80
2022-09-25T03:38:36.632Z,12.80
2022-09-25T03:41:07.079Z,12.80
2022-09-25T03:43:36.211Z,12.70
2022-09-25T03:46:05.236Z,12.70
2022-09-25T03:48:33.876Z,12.70
2022-09-25T03:51:02.315Z,12.70
2022-09-25T03:53:33.811Z,12.70
2022-09-25T03:56:02.644Z,12.70
2022-09-25T03:58:31.363Z,12.70
2022-09-25T04:00:59.660Z,12.70
2022-09-25T04:03:29.238Z,12.70
2022-09-25T04:05:58.561Z,12.70
2022-09-25T04:08:27.588Z,12.70
2022-09-25T04:10:59.378Z,12.70
2022-09-25T04:13:30.105Z,12.60
2022-09-25T04:15:59.442Z,12.60
2022-09-25T04:18:31.670Z,12.60
2022-09-25T04:21:00.311Z,12.50
2022-09-25T04:23:28.492Z,12.50
2022-09-25T04:25:58.584Z,12.50
2022-09-25T04:28:27.126Z,12.50
2022-09-25T04:30:55.391Z,12.40
2022-09-25T04:33:40.771Z,12.40
2022-09-25T04:36:09.430Z,12.40
2022-09-25T04:38:37.630Z,12.50
2022-09-25T04:41:08.268Z,12.40
2022-09-25T04:43:37.054Z,12.40
2022-09-25T04:46:06.775Z,12.40
2022-09-25T04:48:35.943Z,12.40
2022-09-25T04:51:04.656Z,12.40
2022-09-25T04:53:35.082Z,12.40
2022-09-25T04:56:04.435Z,12.40
2022-09-25T04:58:34.075Z,12.40
2022-09-25T05:01:04.460Z,12.50
2022-09-25T05:03:32.781Z,12.50
2022-09-25T05:06:01.006Z,12.50
2022-09-25T05:08:29.251Z,12.50
2022-09-25T05:10:57.547Z,12.50
2022-09-25T05:13:25.999Z,12.50
2022-09-25T05:15:56.475Z,12.50
2022-09-25T05:18:25.713Z,12.50
2022-09-25T05:20:54.711Z,12.60
2022-09-25T05:23:24.118Z,12.60
2022-09-25T05:25:58.190Z,12.60
2022-09-25T05:28:26.438Z,12.60
2022-09-25T05:30:56.620Z,12.60
2022-09-25T05:33:24.776Z,12.60
2022-09-25T05:35:52.924Z,12.70
2022-09-25T05:38:21.065Z,12.70
2022-09-25T05:40:49.268Z,12.70
2022-09-25T05:43:17.586Z,12.80
2022-09-25T05:45:45.738Z,12.80
2022-09-25T05:48:16.290Z,12.80
2022-09-25T05:50:44.397Z,12.80
2022-09-25T05:53:12.596Z,12.80
2022-09-25T05:55:40.725Z,12.90
2022-09-25T05:58:08.873Z,12.90
2022-09-25T06:00:37.082Z,13.00
2022-09-25T06:03:05.341Z,13.00
2022-09-25T06:05:35.191Z,13.00
2022-09-25T06:08:03.765Z,13.10
2022-09-25T06:10:32.051Z,13.10
2022-09-25T06:13:00.916Z,13.20
2022-09-25T06:15:30.029Z,13.20
2022-09-25T06:17:58.685Z,13.20
2022-09-25T06:20:26.903Z,13.30
2022-09-25T06:22:57.448Z,13.40
2022-09-25T06:25:27.543Z,13.40
2022-09-25T06:27:56.224Z,13.40
2022-09-25T06:30:27.749Z,13.50
2022-09-25T06:32:59.077Z,13.50
2022-09-25T06:35:27.435Z,13.60
2022-09-25T06:38:00.472Z,13.60
2022-09-25T06:40:31.420Z,13.70
2022-09-25T06:43:00.132Z,13.70
2022-09-25T06:45:30.061Z,13.80
2022-09-25T06:48:02.980Z,13.90
2022-09-25T06:50:35.986Z,13.80
2022-09-25T06:53:06.088Z,13.80
2022-09-25T06:55:35.285Z,13.90
2022-09-25T06:58:04.498Z,13.90
2022-09-25T07:00:36.094Z,13.90
2022-09-25T07:03:33.276Z,14.00
2022-09-25T07:06:02.217Z,14.00
2022-09-25T07:08:32.501Z,14.10
2022-09-25T07:11:01.592Z,14.20
2022-09-25T07:13:32.123Z,14.30
2022-09-25T07:16:01.721Z,14.40
2022-09-25T07:18:31.051Z,14.50
2022-09-25T07:21:03.597Z,14.60
2022-09-25T07:23:33.859Z,14.70
2022-09-25T07:26:07.212Z,14.80
2022-09-25T07:28:38.372Z,14.90
2022-09-25T07:31:15.300Z,14.90
2022-09-25T07:33:43.675Z,15.00
2022-09-25T07:36:12.143Z,15.00
2022-09-25T07:38:41.911Z,15.10
2022-09-25T07:41:13.034Z,15.10
2022-09-25T07:43:42.299Z,15.10
2022-09-25T07:46:11.023Z,15.10
2022-09-25T07:48:39.576Z,15.20
2022-09-25T07:51:09.920Z,15.30
2022-09-25T07:53:38.252Z,15.30
2022-09-25T07:56:08.383Z,15.40
2022-09-25T07:58:36.833Z,15.40
2022-09-25T08:01:07.665Z,15.50
2022-09-25T08:03:36.257Z,15.50
2022-09-25T08:06:06.296Z,15.50
2022-09-25T08:08:35.735Z,15.50
2022-09-25T08:11:06.851Z,15.50
2022-09-25T08:13:37.417Z,15.50
2022-09-25T08:16:06.436Z,15.50
2022-09-25T08:18:34.894Z,15.50
2022-09-25T08:21:04.045Z,15.40
2022-09-25T08:23:33.790Z,15.40
2022-09-25T08:26:02.250Z,15.30
2022-09-25T08:28:30.571Z,15.40
2022-09-25T08:31:01.734Z,15.40
2022-09-25T08:33:32.068Z,15.40
2022-09-25T08:36:01.672Z,15.40
2022-09-25T08:38:32.337Z,15.40
2022-09-25T08:41:05.001Z,15.40
2022-09-25T08:43:37.375Z,15.40
2022-09-25T08:46:31.191Z,15.40
2022-09-25T08:49:06.415Z,15.40
2022-09-25T08:51:38.072Z,15.40
2022-09-25T08:54:06.988Z,15.20
2022-09-25T08:56:37.591Z,15.20
2022-09-25T08:59:23.355Z,15.10
2022-09-25T09:01:57.846Z,15.00
2022-09-25T09:04:29.348Z,14.90
2022-09-25T09:07:25.853Z,14.90
2022-09-25T09:09:54.112Z,14.90
2022-09-25T09:12:27.099Z,14.80
2022-09-25T09:15:06.615Z,14.90
2022-09-25T09:17:43.153Z,14.90
2022-09-25T09:20:19.084Z,14.90
2022-09-25T09:22:52.777Z,14.80
2022-09-25T09:25:29.210Z,14.90
2022-09-25T09:28:26.815Z,14.90
2022-09-25T09:31:04.886Z,14.90
2022-09-25T09:33:46.532Z,14.90
2022-09-25T09:36:23.667Z,14.90
2022-09-25T09:38:58.987Z,14.90
2022-09-25T09:41:40.349Z,14.90
2022-09-25T09:44:23.114Z,14.90
2022-09-25T09:47:00.136Z,15.00
2022-09-25T09:49:36.079Z,15.10
2022-09-25T09:52:10.665Z,15.20
2022-09-25T09:54:44.057Z,15.20
2022-09-25T09:57:17.015Z,15.20
2022-09-25T09:59:50.156Z,15.20
2022-09-25T10:02:31.981Z,15.20
2022-09-25T10:05:05.987Z,15.20
2022-09-25T10:07:38.017Z,15.10
2022-09-25T10:10:14.038Z,15.20
2022-09-25T10:12:46.164Z,15.20
2022-09-25T10:15:24.668Z,15.20
2022-09-25T10:17:54.253Z,15.30
2022-09-25T10:20:26.046Z,15.20
2022-09-25T10:22:56.700Z,15.10
2022-09-25T10:25:37.569Z,15.00
2022-09-25T10:28:24.816Z,15.00
2022-09-25T10:30:53.785Z,15.00
2022-09-25T10:33:24.199Z,15.00
2022-09-25T10:35:55.051Z,15.00
2022-09-25T10:38:35.770Z,15.00
2022-09-25T10:41:07.677Z,14.90
2022-09-25T10:43:36.362Z,14.90
2022-09-25T10:46:15.078Z,14.80
2022-09-25T10:49:01.044Z,14.80
2022-09-25T10:51:32.467Z,14.80
2022-09-25T10:54:13.820Z,14.80
2022-09-25T10:56:42.406Z,14.80
2022-09-25T10:59:18.609Z,14.80
2022-09-25T11:01:49.232Z,14.80
2022-09-25T11:04:21.250Z,14.80
2022-09-25T11:06:53.577Z,14.70
2022-09-25T11:09:24.194Z,14.70
2022-09-25T11:11:55.766Z,14.70
2022-09-25T11:14:32.281Z,14.70
2022-09-25T11:17:06.133Z,14.80
2022-09-25T11:19:36.122Z,14.80
2022-09-25T11:22:17.809Z,14.90
2022-09-25T11:25:00.883Z,14.90
2022-09-25T11:27:36.049Z,14.90
2022-09-25T11:30:07.421Z,15.00
2022-09-25T11:32:46.666Z,15.00
2022-09-25T11:35:34.739Z,15.00
2022-09-25T11:38:12.706Z,15.10
2022-09-25T11:41:16.504Z,15.10
2022-09-25T11:43:57.702Z,15.10
2022-09-25T11:46:34.018Z,15.10
2022-09-25T11:49:12.345Z,15.10
2022-09-25T11:52:10.474Z,15.20
2022-09-25T11:54:52.868Z,15.10
2022-09-25T11:57:31.998Z,15.20
2022-09-25T12:00:09.181Z,15.20
2022-09-25T12:02:52.634Z,15.10
2022-09-25T12:05:42.007Z,15.20
2022-09-25T12:08:18.941Z,15.20
2022-09-25T12:10:58.279Z,15.30
2022-09-25T12:13:39.184Z,15.30
2022-09-25T12:16:14.886Z,15.30
2022-09-25T12:19:10.982Z,15.30
2022-09-25T12:21:45.973Z,15.30
2022-09-25T12:24:23.821Z,15.40
2022-09-25T12:27:01.262Z,15.40
2022-09-25T12:29:46.467Z,15.30
2022-09-25T12:32:24.602Z,15.40
2022-09-25T12:35:11.126Z,15.40
2022-09-25T12:37:44.265Z,15.40
2022-09-25T12:40:21.585Z,15.40
2022-09-25T12:42:57.769Z,15.50
2022-09-25T12:45:32.304Z,15.60
2022-09-25T12:48:08.696Z,15.80
2022-09-25T12:50:43.342Z,16.00
2022-09-25T12:53:23.890Z,16.00
2022-09-25T12:55:57.261Z,16.10
2022-09-25T12:58:38.823Z,16.30
2022-09-25T13:01:15.994Z,16.50
2022-09-25T13:03:50.116Z,16.80
2022-09-25T13:06:23.164Z,17.00
2022-09-25T13:08:58.963Z,17.30
2022-09-25T13:11:36.895Z,17.50
2022-09-25T13:14:13.362Z,17.70
2022-09-25T13:16:41.577Z,17.70
2022-09-25T13:19:24.440Z,17.60
2022-09-25T13:21:59.122Z,17.50
2022-09-25T13:24:27.288Z,17.40
2022-09-25T13:26:57.656Z,17.50
2022-09-25T13:29:30.016Z,17.50
2022-09-25T13:32:05.324Z,17.60
2022-09-25T13:34:39.301Z,17.80
2022-09-25T13:37:10.100Z,17.90
2022-09-25T13:39:59.333Z,17.90
2022-09-25T13:42:30.743Z,18.00
2022-09-25T13:45:37.422Z,17.80
2022-09-25T13:48:12.597Z,17.70
2022-09-25T13:50:45.384Z,17.80
2022-09-25T13:53:29.019Z,17.70
2022-09-25T13:56:29.917Z,17.60
2022-09-25T13:59:38.584Z,17.50
2022-09-25T14:02:43.664Z,17.40
2022-09-25T14:05:18.347Z,17.30
2022-09-25T14:07:49.264Z,17.20
2022-09-25T14:10:19.217Z,17.00
2022-09-25T14:12:49.169Z,17.00
2022-09-25T14:15:28.425Z,17.00
2022-09-25T14:17:58.326Z,16.90
2022-09-25T14:20:40.349Z,16.90
2022-09-25T14:23:15.194Z,16.80
2022-09-25T14:25:47.092Z,16.60
2022-09-25T14:28:34.580Z,16.60
2022-09-25T14:31:24.525Z,16.60
2022-09-25T14:34:37.800Z,16.50
2022-09-25T14:37:20.782Z,16.50
2022-09-25T14:39:55.836Z,16.50
2022-09-25T14:43:03.034Z,16.40
2022-09-25T14:45:50.635Z,16.30
2022-09-25T14:48:21.945Z,16.30
2022-09-25T14:50:52.735Z,16.20
2022-09-25T14:53:27.776Z,16.20
2022-09-25T14:55:57.899Z,16.20
2022-09-25T14:58:30.139Z,16.20
2022-09-25T15:01:03.405Z,16.20
2022-09-25T15:03:33.796Z,16.20
2022-09-25T15:06:02.949Z,16.20
2022-09-25T15:08:40.999Z,16.20
2022-09-25T15:11:14.169Z,16.10
2022-09-25T15:13:43.124Z,16.10
2022-09-25T15:16:33.650Z,16.00
2022-09-25T15:19:04.326Z,16.00
2022-09-25T15:21:34.152Z,15.90
2022-09-25T15:24:07.113Z,15.90
2022-09-25T15:26:39.394Z,15.90
2022-09-25T15:29:17.832Z,15.90
2022-09-25T15:31:51.413Z,15.90
2022-09-25T15:34:24.953Z,15.80
2022-09-25T15:36:54.048Z,15.90
2022-09-25T15:39:26.268Z,15.90
2022-09-25T15:41:55.511Z,15.80
2022-09-25T15:44:26.091Z,15.80
2022-09-25T15:46:55.929Z,15.80
2022-09-25T15:49:28.728Z,15.80
2022-09-25T15:52:00.508Z,15.70
2022-09-25T15:54:38.873Z,15.70
2022-09-25T15:57:13.319Z,15.70
2022-09-25T15:59:58.296Z,15.60
2022-09-25T16:02:49.884Z,15.50
2022-09-25T16:05:24.342Z,15.50
2022-09-25T16:07:52.591Z,15.50
2022-09-25T16:10:34.988Z,15.40
2022-09-25T16:13:03.807Z,15.40
2022-09-25T16:15:48.224Z,15.40
2022-09-25T16:18:36.445Z,15.40
2022-09-25T16:21:17.181Z,15.30
2022-09-25T16:23:55.724Z,15.30
2022-09-25T16:26:36.294Z,15.20
2022-09-25T16:29:15.258Z,15.20
2022-09-25T16:31:45.999Z,15.10
2022-09-25T16:34:25.825Z,15.00
2022-09-25T16:36:55.807Z,15.00
2022-09-25T16:39:27.493Z,15.00
2022-09-25T16:41:58.588Z,15.00
2022-09-25T16:44:39.471Z,14.90
2022-09-25T16:47:16.561Z,14.90
2022-09-25T16:49:44.928Z,14.90
2022-09-25T16:52:20.739Z,14.90
2022-09-25T16:54:54.504Z,14.90
2022-09-25T16:57:27.796Z,14.90
2022-09-25T16:59:56.030Z,14.90
2022-09-25T17:02:33.422Z,14.90
2022-09-25T17:05:04.028Z,14.90
2022-09-25T17:07:32.489Z,14.90
2022-09-25T17:10:01.593Z,14.80
2022-09-25T17:12:32.751Z,14.80
2022-09-25T17:15:01.137Z,14.80
2022-09-25T17:17:31.133Z,14.80
2022-09-25T17:19:59.552Z,14.80
2022-09-25T17:22:30.504Z,14.80
2022-09-25T17:25:02.946Z,14.80
2022-09-25T17:27:32.545Z,14.80
2022-09-25T17:30:01.350Z,14.80
2022-09-25T17:32:31.360Z,14.80
2022-09-25T17:35:01.913Z,14.80
2022-09-25T17:37:30.122Z,14.80
2022-09-25T17:39:59.171Z,14.80
2022-09-25T17:42:27.825Z,14.80
2022-09-25T17:44:57.670Z,14.80
2022-09-25T17:47:26.590Z,14.80
2022-09-25T17:49:54.758Z,14.80
2022-09-25T17:52:23.227Z,14.80
2022-09-25T17:54:51.476Z,14.80
2022-09-25T17:57:19.659Z,14.80
2022-09-25T17:59:47.901Z,14.80
2022-09-25T18:02:18.272Z,14.80
2022-09-25T18:04:46.653Z,14.80
2022-09-25T18:07:15.655Z,14.80
2022-09-25T18:09:43.935Z,14.70
2022-09-25T18:12:12.112Z,14.80
2022-09-25T18:14:40.270Z,14.70
2022-09-25T18:17:08.559Z,14.70
2022-09-25T18:19:55.562Z,14.70
2022-09-25T18:22:25.749Z,14.70
2022-09-25T18:24:56.445Z,14.70
2022-09-25T18:27:26.422Z,14.70
2022-09-25T18:29:54.839Z,14.70
2022-09-25T18:32:24.264Z,14.70
2022-09-25T18:34:54.783Z,14.80
2022-09-25T18:37:22.907Z,14.70
2022-09-25T18:39:51.709Z,14.70
2022-09-25T18:42:19.890Z,14.70
2022-09-25T18:44:48.536Z,14.70
2022-09-25T18:47:16.639Z,14.70
2022-09-25T18:49:45.468Z,14.70
2022-09-25T18:52:15.911Z,14.70
2022-09-25T18:54:44.154Z,14.70
2022-09-25T18:57:13.747Z,14.70
2022-09-25T18:59:42.684Z,14.70
2022-09-25T19:02:20.795Z,14.80
2022-09-25T19:04:49.694Z,14.70
2022-09-25T19:07:19.729Z,14.70
2022-09-25T19:09:47.961Z,14.70
2022-09-25T19:12:17.154Z,14.70
2022-09-25T19:14:45.996Z,14.70
2022-09-25T19:17:14.583Z,14.70
2022-09-25T19:19:44.035Z,14.70
2022-09-25T19:22:17.882Z,14.70
2022-09-25T19:24:48.998Z,14.70
2022-09-25T19:27:18.845Z,14.70
2022-09-25T19:29:47.504Z,14.60
2022-09-25T19:32:17.348Z,14.60
2022-09-25T19:34:46.317Z,14.70
2022-09-25T19:37:15.228Z,14.70
2022-09-25T19:40:00.559Z,14.60
2022-09-25T19:42:30.645Z,14.60
2022-09-25T19:44:58.794Z,14.60
2022-09-25T19:47:26.944Z,14.60
2022-09-25T19:49:55.053Z,14.60
2022-09-25T19:52:24.390Z,14.70
2022-09-25T19:54:52.662Z,14.60
2022-09-25T19:57:20.824Z,14.60
2022-09-25T19:59:50.414Z,14.60
2022-09-25T20:02:18.694Z,14.60
2022-09-25T20:04:48.200Z,14.60
2022-09-25T20:07:16.870Z,14.60
2022-09-25T20:09:45.310Z,14.60
2022-09-25T20:12:13.668Z,14.60
2022-09-25T20:14:41.851Z,14.60
2022-09-25T20:17:11.490Z,14.60
2022-09-25T20:19:39.745Z,14.60
2022-09-25T20:22:07.896Z,14.60
2022-09-25T20:24:36.001Z,14.60
2022-09-25T20:27:04.069Z,14.60
2022-09-25T20:29:32.271Z,14.60
2022-09-25T20:32:00.427Z,14.60
2022-09-25T20:34:30.220Z,14.60
2022-09-25T20:36:58.352Z,14.60
2022-09-25T20:39:27.503Z,14.50
2022-09-25T20:41:56.226Z,14.50
2022-09-25T20:44:24.406Z,14.50
2022-09-25T20:46:52.585Z,14.50
2022-09-25T20:49:21.274Z,14.50
2022-09-25T20:51:50.895Z,14.40
2022-09-25T20:54:19.051Z,14.40
2022-09-25T20:56:47.308Z,14.40
2022-09-25T20:59:18.132Z,14.30
2022-09-25T21:01:46.772Z,14.30
2022-09-25T21:04:17.175Z,14.30
2022-09-25T21:06:45.963Z,14.30
2022-09-25T21:09:21.032Z,14.30
2022-09-25T21:11:49.752Z,14.30
2022-09-25T21:14:20.921Z,14.30
2022-09-25T21:16:50.028Z,14.30
2022-09-25T21:19:20.917Z,14.30
2022-09-25T21:21:49.819Z,14.30
2022-09-25T21:24:21.411Z,14.30
2022-09-25T21:26:49.912Z,14.30
2022-09-25T21:29:19.228Z,14.20
2022-09-25T21:31:50.162Z,14.20
2022-09-25T21:34:19.834Z,14.20
2022-09-25T21:36:48.875Z,14.20
2022-09-25T21:39:21.000Z,14.20
2022-09-25T21:41:50.086Z,14.10
2022-09-25T21:44:20.198Z,14.10
2022-09-25T21:46:48.375Z,14.10
2022-09-25T21:49:18.095Z,14.10
2022-09-25T21:51:47.230Z,14.10
2022-09-25T21:54:16.399Z,14.10
2022-09-25T21:56:46.327Z,14.00
2022-09-25T21:59:14.695Z,14.00
2022-09-25T22:01:43.467Z,14.10
2022-09-25T22:04:13.702Z,14.10
2022-09-25T22:06:44.494Z,14.10
2022-09-25T22:09:15.674Z,14.10
2022-09-25T22:11:46.670Z,14.10
2022-09-25T22:14:16.560Z,14.00
2022-09-25T22:16:46.987Z,14.10
2022-09-25T22:19:17.290Z,14.10
2022-09-25T22:21:46.555Z,14.00
2022-09-25T22:24:15.177Z,14.00
2022-09-25T22:26:47.210Z,14.00
2022-09-25T22:29:15.717Z,14.00
2022-09-25T22:31:44.549Z,14.00
2022-09-25T22:34:19.023Z,14.00
2022-09-25T22:36:47.618Z,14.00
2022-09-25T22:39:17.470Z,14.00
2022-09-25T22:41:51.026Z,14.00
2022-09-25T22:44:19.823Z,14.00
2022-09-25T22:46:48.123Z,14.00
2022-09-25T22:49:16.621Z,14.00
2022-09-25T22:51:44.880Z,14.00
2022-09-25T22:54:14.743Z,14.00
2022-09-25T22:56:43.910Z,14.00
2022-09-25T22:59:16.257Z,14.00
2022-09-25T23:01:47.712Z,13.90
2022-09-25T23:04:17.952Z,13.90
2022-09-25T23:06:46.354Z,13.80
2022-09-25T23:09:21.630Z,13.80
2022-09-25T23:11:49.741Z,13.80
2022-09-25T23:14:22.930Z,13.80
2022-09-25T23:16:52.444Z,13.80
2022-09-25T23:19:21.471Z,13.80
2022-09-25T23:21:50.062Z,13.80
2022-09-25T23:24:20.190Z,13.70
2022-09-25T23:26:48.512Z,13.70
2022-09-25T23:29:20.151Z,13.60
2022-09-25T23:31:49.620Z,13.60
2022-09-25T23:34:18.009Z,13.60
2022-09-25T23:36:46.390Z,13.60
2022-09-25T23:39:17.641Z,13.50
2022-09-25T23:41:46.077Z,13.50
2022-09-25T23:44:14.576Z,13.50
2022-09-25T23:46:44.876Z,13.50
2022-09-25T23:49:13.322Z,13.40
2022-09-25T23:51:41.877Z,13.40
2022-09-25T23:54:12.213Z,13.40
2022-09-25T23:56:41.369Z,13.40
2022-09-25T23:59:12.165Z,13.40
